sensor_id;sensor_type;location;lat;lon;timestamp;temperature;humidity
23579;DHT22;11967;50.852;4.400;2024-02-14T00:02:22;11.10;99.90
23579;DHT22;11967;50.852;4.400;2024-02-14T00:04:47;11.00;99.90
23579;DHT22;11967;50.852;4.400;2024-02-14T00:07:13;11.10;99.90
23579;DHT22;11967;50.852;4.400;2024-02-14T00:09:40;11.10;99.90
23579;DHT22;11967;50.852;4.400;2024-02-14T00:12:06;11.10;99.90
23579;DHT22;11967;50.852;4.400;2024-02-14T00:14:31;11.00;99.90
23579;DHT22;11967;50.852;4.400;2024-02-14T00:16:57;11.10;99.90
23579;DHT22;11967;50.852;4.400;2024-02-14T00:19:24;11.00;99.90
23579;DHT22;11967;50.852;4.400;2024-02-14T00:21:51;11.10;99.90
23579;DHT22;11967;50.852;4.400;2024-02-14T00:24:17;11.20;99.90
23579;DHT22;11967;50.852;4.400;2024-02-14T00:26:44;11.20;99.90
23579;DHT22;11967;50.852;4.400;2024-02-14T00:29:11;11.20;99.90
23579;DHT22;11967;50.852;4.400;2024-02-14T00:31:37;11.20;99.90
23579;DHT22;11967;50.852;4.400;2024-02-14T00:34:03;11.30;99.90
23579;DHT22;11967;50.852;4.400;2024-02-14T00:36:28;11.30;99.90
23579;DHT22;11967;50.852;4.400;2024-02-14T00:38:54;11.30;99.90
23579;DHT22;11967;50.852;4.400;2024-02-14T00:41:20;11.30;99.90
23579;DHT22;11967;50.852;4.400;2024-02-14T00:43:46;11.40;99.90
23579;DHT22;11967;50.852;4.400;2024-02-14T00:46:17;11.30;99.90
23579;DHT22;11967;50.852;4.400;2024-02-14T00:48:43;11.30;99.90
23579;DHT22;11967;50.852;4.400;2024-02-14T00:51:10;11.40;99.90
23579;DHT22;11967;50.852;4.400;2024-02-14T00:53:35;11.40;99.90
23579;DHT22;11967;50.852;4.400;2024-02-14T00:56:01;11.40;99.90
23579;DHT22;11967;50.852;4.400;2024-02-14T00:58:28;11.40;99.90
23579;DHT22;11967;50.852;4.400;2024-02-14T01:00:53;11.50;99.90
23579;DHT22;11967;50.852;4.400;2024-02-14T01:03:19;11.50;99.90
23579;DHT22;11967;50.852;4.400;2024-02-14T01:05:45;11.40;99.90
23579;DHT22;11967;50.852;4.400;2024-02-14T01:08:10;11.40;99.90
23579;DHT22;11967;50.852;4.400;2024-02-14T01:10:36;11.30;99.90
23579;DHT22;11967;50.852;4.400;2024-02-14T01:13:02;11.20;99.90
23579;DHT22;11967;50.852;4.400;2024-02-14T01:15:27;11.20;99.90
23579;DHT22;11967;50.852;4.400;2024-02-14T01:17:53;11.20;99.90
23579;DHT22;11967;50.852;4.400;2024-02-14T01:20:19;11.30;99.90
23579;DHT22;11967;50.852;4.400;2024-02-14T01:22:45;11.30;99.90
23579;DHT22;11967;50.852;4.400;2024-02-14T01:25:12;11.20;99.90
23579;DHT22;11967;50.852;4.400;2024-02-14T01:27:39;11.20;99.90
23579;DHT22;11967;50.852;4.400;2024-02-14T01:30:05;11.10;99.90
23579;DHT22;11967;50.852;4.400;2024-02-14T01:32:30;11.10;99.90
23579;DHT22;11967;50.852;4.400;2024-02-14T01:34:57;11.20;99.90
23579;DHT22;11967;50.852;4.400;2024-02-14T01:37:22;11.20;99.90
23579;DHT22;11967;50.852;4.400;2024-02-14T01:39:48;11.10;99.90
23579;DHT22;11967;50.852;4.400;2024-02-14T01:42:13;11.20;99.90
23579;DHT22;11967;50.852;4.400;2024-02-14T01:44:39;11.20;99.90
23579;DHT22;11967;50.852;4.400;2024-02-14T01:47:05;11.20;99.90
23579;DHT22;11967;50.852;4.400;2024-02-14T01:49:33;11.10;99.90
23579;DHT22;11967;50.852;4.400;2024-02-14T01:52:02;11.20;99.90
23579;DHT22;11967;50.852;4.400;2024-02-14T01:54:31;11.10;99.90
23579;DHT22;11967;50.852;4.400;2024-02-14T01:56:58;11.20;99.90
23579;DHT22;11967;50.852;4.400;2024-02-14T01:59:24;11.20;99.90
23579;DHT22;11967;50.852;4.400;2024-02-14T02:01:50;11.00;99.90
23579;DHT22;11967;50.852;4.400;2024-02-14T02:04:19;11.10;99.90
23579;DHT22;11967;50.852;4.400;2024-02-14T02:06:46;11.20;99.90
23579;DHT22;11967;50.852;4.400;2024-02-14T02:09:11;11.30;99.90
23579;DHT22;11967;50.852;4.400;2024-02-14T02:11:47;11.20;99.90
23579;DHT22;11967;50.852;4.400;2024-02-14T02:14:14;11.30;99.90
23579;DHT22;11967;50.852;4.400;2024-02-14T02:16:40;11.30;99.90
23579;DHT22;11967;50.852;4.400;2024-02-14T02:19:06;11.40;99.90
23579;DHT22;11967;50.852;4.400;2024-02-14T02:21:35;11.40;99.90
23579;DHT22;11967;50.852;4.400;2024-02-14T02:24:01;11.40;99.90
23579;DHT22;11967;50.852;4.400;2024-02-14T02:26:27;11.40;99.90
23579;DHT22;11967;50.852;4.400;2024-02-14T02:28:53;11.40;99.90
23579;DHT22;11967;50.852;4.400;2024-02-14T02:31:19;11.40;99.90
23579;DHT22;11967;50.852;4.400;2024-02-14T02:33:46;11.30;99.90
23579;DHT22;11967;50.852;4.400;2024-02-14T02:36:11;11.40;99.90
23579;DHT22;11967;50.852;4.400;2024-02-14T02:38:37;11.30;99.90
23579;DHT22;11967;50.852;4.400;2024-02-14T02:41:03;11.40;99.90
23579;DHT22;11967;50.852;4.400;2024-02-14T02:43:32;11.50;99.90
23579;DHT22;11967;50.852;4.400;2024-02-14T02:45:58;11.40;99.90
23579;DHT22;11967;50.852;4.400;2024-02-14T02:48:24;11.50;99.90
23579;DHT22;11967;50.852;4.400;2024-02-14T02:50:50;11.40;99.90
23579;DHT22;11967;50.852;4.400;2024-02-14T02:53:17;11.40;99.90
23579;DHT22;11967;50.852;4.400;2024-02-14T02:55:42;11.50;99.90
23579;DHT22;11967;50.852;4.400;2024-02-14T02:58:09;11.50;99.90
23579;DHT22;11967;50.852;4.400;2024-02-14T03:00:35;11.50;99.90
23579;DHT22;11967;50.852;4.400;2024-02-14T03:03:01;11.50;99.90
23579;DHT22;11967;50.852;4.400;2024-02-14T03:05:29;11.50;99.90
23579;DHT22;11967;50.852;4.400;2024-02-14T03:07:59;11.60;99.90
23579;DHT22;11967;50.852;4.400;2024-02-14T03:10:25;11.60;99.90
23579;DHT22;11967;50.852;4.400;2024-02-14T03:12:51;11.60;99.90
23579;DHT22;11967;50.852;4.400;2024-02-14T03:15:17;11.60;99.90
23579;DHT22;11967;50.852;4.400;2024-02-14T03:17:44;11.70;99.90
23579;DHT22;11967;50.852;4.400;2024-02-14T03:20:14;11.60;99.90
23579;DHT22;11967;50.852;4.400;2024-02-14T03:22:40;11.60;99.90
23579;DHT22;11967;50.852;4.400;2024-02-14T03:25:16;11.60;99.90
23579;DHT22;11967;50.852;4.400;2024-02-14T03:27:42;11.70;99.90
23579;DHT22;11967;50.852;4.400;2024-02-14T03:30:08;11.60;99.90
23579;DHT22;11967;50.852;4.400;2024-02-14T03:32:34;11.60;99.90
23579;DHT22;11967;50.852;4.400;2024-02-14T03:34:59;11.60;99.90
23579;DHT22;11967;50.852;4.400;2024-02-14T03:37:26;11.60;99.90
23579;DHT22;11967;50.852;4.400;2024-02-14T03:39:52;11.50;99.90
23579;DHT22;11967;50.852;4.400;2024-02-14T03:42:18;11.60;99.90
23579;DHT22;11967;50.852;4.400;2024-02-14T03:44:45;11.60;99.90
23579;DHT22;11967;50.852;4.400;2024-02-14T03:47:11;11.60;99.90
23579;DHT22;11967;50.852;4.400;2024-02-14T03:49:38;11.50;99.90
23579;DHT22;11967;50.852;4.400;2024-02-14T03:52:06;11.50;99.90
23579;DHT22;11967;50.852;4.400;2024-02-14T03:54:36;11.50;99.90
23579;DHT22;11967;50.852;4.400;2024-02-14T03:57:02;11.60;99.90
23579;DHT22;11967;50.852;4.400;2024-02-14T03:59:29;11.60;99.90
23579;DHT22;11967;50.852;4.400;2024-02-14T04:01:55;11.60;99.90
23579;DHT22;11967;50.852;4.400;2024-02-14T04:04:22;11.70;99.90
23579;DHT22;11967;50.852;4.400;2024-02-14T04:06:48;11.70;99.90
23579;DHT22;11967;50.852;4.400;2024-02-14T04:09:13;11.60;99.90
23579;DHT22;11967;50.852;4.400;2024-02-14T04:11:39;11.60;99.90
23579;DHT22;11967;50.852;4.400;2024-02-14T04:14:05;11.50;99.90
23579;DHT22;11967;50.852;4.400;2024-02-14T04:16:30;11.60;99.90
23579;DHT22;11967;50.852;4.400;2024-02-14T04:18:56;11.60;99.90
23579;DHT22;11967;50.852;4.400;2024-02-14T04:21:22;11.60;99.90
23579;DHT22;11967;50.852;4.400;2024-02-14T04:23:48;11.70;99.90
23579;DHT22;11967;50.852;4.400;2024-02-14T04:26:23;11.80;99.90
23579;DHT22;11967;50.852;4.400;2024-02-14T04:28:49;11.80;99.90
23579;DHT22;11967;50.852;4.400;2024-02-14T04:31:15;11.80;99.90
23579;DHT22;11967;50.852;4.400;2024-02-14T04:33:41;11.80;99.90
23579;DHT22;11967;50.852;4.400;2024-02-14T04:36:07;11.80;99.90
23579;DHT22;11967;50.852;4.400;2024-02-14T04:38:32;11.80;99.90
23579;DHT22;11967;50.852;4.400;2024-02-14T04:40:58;11.90;99.90
23579;DHT22;11967;50.852;4.400;2024-02-14T04:43:25;11.80;99.90
23579;DHT22;11967;50.852;4.400;2024-02-14T04:45:54;11.70;99.90
23579;DHT22;11967;50.852;4.400;2024-02-14T04:48:20;11.60;99.90
23579;DHT22;11967;50.852;4.400;2024-02-14T04:50:45;11.70;99.90
23579;DHT22;11967;50.852;4.400;2024-02-14T04:53:11;11.80;99.90
23579;DHT22;11967;50.852;4.400;2024-02-14T04:55:36;11.90;99.90
23579;DHT22;11967;50.852;4.400;2024-02-14T04:58:02;11.80;99.90
23579;DHT22;11967;50.852;4.400;2024-02-14T05:00:28;11.70;99.90
23579;DHT22;11967;50.852;4.400;2024-02-14T05:02:53;11.80;99.90
23579;DHT22;11967;50.852;4.400;2024-02-14T05:05:19;11.80;99.90
23579;DHT22;11967;50.852;4.400;2024-02-14T05:07:46;11.80;99.90
23579;DHT22;11967;50.852;4.400;2024-02-14T05:10:12;11.80;99.90
23579;DHT22;11967;50.852;4.400;2024-02-14T05:12:37;11.90;99.90
23579;DHT22;11967;50.852;4.400;2024-02-14T05:15:03;11.80;99.90
23579;DHT22;11967;50.852;4.400;2024-02-14T05:17:29;11.80;99.90
23579;DHT22;11967;50.852;4.400;2024-02-14T05:19:55;11.80;99.90
23579;DHT22;11967;50.852;4.400;2024-02-14T05:22:22;11.80;99.90
23579;DHT22;11967;50.852;4.400;2024-02-14T05:24:48;11.90;99.90
23579;DHT22;11967;50.852;4.400;2024-02-14T05:27:13;12.00;99.90
23579;DHT22;11967;50.852;4.400;2024-02-14T05:29:39;11.90;99.90
23579;DHT22;11967;50.852;4.400;2024-02-14T05:32:05;12.00;99.90
23579;DHT22;11967;50.852;4.400;2024-02-14T05:34:31;12.10;99.90
23579;DHT22;11967;50.852;4.400;2024-02-14T05:36:57;12.10;99.90
23579;DHT22;11967;50.852;4.400;2024-02-14T05:39:22;12.10;99.90
23579;DHT22;11967;50.852;4.400;2024-02-14T05:41:48;12.10;99.90
23579;DHT22;11967;50.852;4.400;2024-02-14T05:44:14;12.10;99.90
23579;DHT22;11967;50.852;4.400;2024-02-14T05:46:40;12.10;99.90
23579;DHT22;11967;50.852;4.400;2024-02-14T05:49:06;12.10;99.90
23579;DHT22;11967;50.852;4.400;2024-02-14T05:51:32;12.10;99.90
23579;DHT22;11967;50.852;4.400;2024-02-14T05:53:58;12.00;99.90
23579;DHT22;11967;50.852;4.400;2024-02-14T05:56:25;11.90;99.90
23579;DHT22;11967;50.852;4.400;2024-02-14T05:58:50;12.00;99.90
23579;DHT22;11967;50.852;4.400;2024-02-14T06:01:16;12.00;99.90
23579;DHT22;11967;50.852;4.400;2024-02-14T06:03:42;11.90;99.90
23579;DHT22;11967;50.852;4.400;2024-02-14T06:06:10;12.00;99.90
23579;DHT22;11967;50.852;4.400;2024-02-14T06:08:36;11.90;99.90
23579;DHT22;11967;50.852;4.400;2024-02-14T06:11:02;11.90;99.90
23579;DHT22;11967;50.852;4.400;2024-02-14T06:13:28;11.90;99.90
23579;DHT22;11967;50.852;4.400;2024-02-14T06:15:53;11.90;99.90
23579;DHT22;11967;50.852;4.400;2024-02-14T06:18:19;12.10;99.90
23579;DHT22;11967;50.852;4.400;2024-02-14T06:20:44;12.10;99.90
23579;DHT22;11967;50.852;4.400;2024-02-14T06:23:13;12.10;99.90
23579;DHT22;11967;50.852;4.400;2024-02-14T06:25:39;12.10;99.90
23579;DHT22;11967;50.852;4.400;2024-02-14T06:28:07;12.00;99.90
23579;DHT22;11967;50.852;4.400;2024-02-14T06:30:35;12.00;99.90
23579;DHT22;11967;50.852;4.400;2024-02-14T06:33:00;12.10;99.90
23579;DHT22;11967;50.852;4.400;2024-02-14T06:35:28;12.00;99.90
23579;DHT22;11967;50.852;4.400;2024-02-14T06:37:55;12.10;99.90
23579;DHT22;11967;50.852;4.400;2024-02-14T06:40:21;12.10;99.90
23579;DHT22;11967;50.852;4.400;2024-02-14T06:42:46;12.20;99.90
23579;DHT22;11967;50.852;4.400;2024-02-14T06:45:16;12.20;99.90
23579;DHT22;11967;50.852;4.400;2024-02-14T06:47:42;12.20;99.90
23579;DHT22;11967;50.852;4.400;2024-02-14T06:50:08;12.20;99.90
23579;DHT22;11967;50.852;4.400;2024-02-14T06:52:34;12.20;99.90
23579;DHT22;11967;50.852;4.400;2024-02-14T06:55:02;12.20;99.90
23579;DHT22;11967;50.852;4.400;2024-02-14T06:57:29;12.20;99.90
23579;DHT22;11967;50.852;4.400;2024-02-14T06:59:55;12.20;99.90
23579;DHT22;11967;50.852;4.400;2024-02-14T07:02:20;12.00;99.90
23579;DHT22;11967;50.852;4.400;2024-02-14T07:04:46;12.10;99.90
23579;DHT22;11967;50.852;4.400;2024-02-14T07:07:12;12.20;99.90
23579;DHT22;11967;50.852;4.400;2024-02-14T07:09:38;12.20;99.90
23579;DHT22;11967;50.852;4.400;2024-02-14T07:12:04;12.30;99.90
23579;DHT22;11967;50.852;4.400;2024-02-14T07:14:30;12.40;99.90
23579;DHT22;11967;50.852;4.400;2024-02-14T07:16:56;12.40;99.90
23579;DHT22;11967;50.852;4.400;2024-02-14T07:19:21;12.40;99.90
23579;DHT22;11967;50.852;4.400;2024-02-14T07:21:47;12.40;99.90
23579;DHT22;11967;50.852;4.400;2024-02-14T07:24:13;12.40;99.90
23579;DHT22;11967;50.852;4.400;2024-02-14T07:26:38;12.30;99.90
23579;DHT22;11967;50.852;4.400;2024-02-14T07:29:06;12.30;99.90
23579;DHT22;11967;50.852;4.400;2024-02-14T07:31:32;12.30;99.90
23579;DHT22;11967;50.852;4.400;2024-02-14T07:34:00;12.30;99.90
23579;DHT22;11967;50.852;4.400;2024-02-14T07:36:25;12.40;99.90
23579;DHT22;11967;50.852;4.400;2024-02-14T07:38:51;12.30;99.90
23579;DHT22;11967;50.852;4.400;2024-02-14T07:41:17;12.30;99.90
23579;DHT22;11967;50.852;4.400;2024-02-14T07:43:42;12.30;99.90
23579;DHT22;11967;50.852;4.400;2024-02-14T07:46:08;12.30;99.90
23579;DHT22;11967;50.852;4.400;2024-02-14T07:48:34;12.30;99.90
23579;DHT22;11967;50.852;4.400;2024-02-14T07:50:59;12.30;99.90
23579;DHT22;11967;50.852;4.400;2024-02-14T07:53:25;12.40;99.90
23579;DHT22;11967;50.852;4.400;2024-02-14T07:55:51;12.30;99.90
23579;DHT22;11967;50.852;4.400;2024-02-14T07:58:18;12.40;99.90
23579;DHT22;11967;50.852;4.400;2024-02-14T08:04:25;12.60;99.90
23579;DHT22;11967;50.852;4.400;2024-02-14T08:06:52;12.70;99.90
23579;DHT22;11967;50.852;4.400;2024-02-14T08:09:18;12.70;99.90
23579;DHT22;11967;50.852;4.400;2024-02-14T08:11:44;12.70;99.90
23579;DHT22;11967;50.852;4.400;2024-02-14T08:14:14;12.60;99.90
23579;DHT22;11967;50.852;4.400;2024-02-14T08:16:40;12.50;99.90
23579;DHT22;11967;50.852;4.400;2024-02-14T08:19:06;12.50;99.90
23579;DHT22;11967;50.852;4.400;2024-02-14T08:21:35;12.50;99.90
23579;DHT22;11967;50.852;4.400;2024-02-14T08:24:02;12.50;99.90
23579;DHT22;11967;50.852;4.400;2024-02-14T08:26:28;12.40;99.90
23579;DHT22;11967;50.852;4.400;2024-02-14T08:28:53;12.30;99.90
23579;DHT22;11967;50.852;4.400;2024-02-14T08:31:20;12.30;99.90
23579;DHT22;11967;50.852;4.400;2024-02-14T08:33:45;12.30;99.90
23579;DHT22;11967;50.852;4.400;2024-02-14T08:36:14;12.30;99.90
23579;DHT22;11967;50.852;4.400;2024-02-14T08:38:42;12.40;99.90
23579;DHT22;11967;50.852;4.400;2024-02-14T08:41:08;12.40;99.90
23579;DHT22;11967;50.852;4.400;2024-02-14T08:43:33;12.50;99.90
23579;DHT22;11967;50.852;4.400;2024-02-14T08:45:59;12.40;99.90
23579;DHT22;11967;50.852;4.400;2024-02-14T08:48:25;12.40;99.90
23579;DHT22;11967;50.852;4.400;2024-02-14T08:50:53;12.40;99.90
23579;DHT22;11967;50.852;4.400;2024-02-14T08:53:18;12.40;99.90
23579;DHT22;11967;50.852;4.400;2024-02-14T08:55:44;12.40;99.90
23579;DHT22;11967;50.852;4.400;2024-02-14T08:58:11;12.40;99.90
23579;DHT22;11967;50.852;4.400;2024-02-14T09:00:37;12.40;99.90
23579;DHT22;11967;50.852;4.400;2024-02-14T09:03:04;12.40;99.90
23579;DHT22;11967;50.852;4.400;2024-02-14T09:05:30;12.50;99.90
23579;DHT22;11967;50.852;4.400;2024-02-14T09:07:56;12.50;99.90
23579;DHT22;11967;50.852;4.400;2024-02-14T09:10:22;12.60;99.90
23579;DHT22;11967;50.852;4.400;2024-02-14T09:12:48;12.50;99.90
23579;DHT22;11967;50.852;4.400;2024-02-14T09:15:14;12.50;99.90
23579;DHT22;11967;50.852;4.400;2024-02-14T09:17:40;12.60;99.90
23579;DHT22;11967;50.852;4.400;2024-02-14T09:20:09;12.50;99.90
23579;DHT22;11967;50.852;4.400;2024-02-14T09:22:36;12.60;99.90
23579;DHT22;11967;50.852;4.400;2024-02-14T09:25:02;12.60;99.90
23579;DHT22;11967;50.852;4.400;2024-02-14T09:27:31;12.60;99.90
23579;DHT22;11967;50.852;4.400;2024-02-14T09:30:05;12.60;99.90
23579;DHT22;11967;50.852;4.400;2024-02-14T09:35:28;12.70;99.90
23579;DHT22;11967;50.852;4.400;2024-02-14T09:38:11;12.60;99.90
23579;DHT22;11967;50.852;4.400;2024-02-14T09:40:40;12.60;99.90
23579;DHT22;11967;50.852;4.400;2024-02-14T09:43:12;12.60;99.90
23579;DHT22;11967;50.852;4.400;2024-02-14T09:45:42;12.60;99.90
23579;DHT22;11967;50.852;4.400;2024-02-14T09:48:09;12.50;99.90
23579;DHT22;11967;50.852;4.400;2024-02-14T09:50:37;12.50;99.90
23579;DHT22;11967;50.852;4.400;2024-02-14T09:53:03;12.60;99.90
23579;DHT22;11967;50.852;4.400;2024-02-14T09:55:29;12.60;99.90
23579;DHT22;11967;50.852;4.400;2024-02-14T09:57:56;12.60;99.90
23579;DHT22;11967;50.852;4.400;2024-02-14T10:00:23;12.50;99.90
23579;DHT22;11967;50.852;4.400;2024-02-14T10:02:49;12.60;99.90
23579;DHT22;11967;50.852;4.400;2024-02-14T10:05:18;12.60;99.90
23579;DHT22;11967;50.852;4.400;2024-02-14T10:07:47;12.60;99.90
23579;DHT22;11967;50.852;4.400;2024-02-14T10:10:13;12.60;99.90
23579;DHT22;11967;50.852;4.400;2024-02-14T10:12:39;12.80;99.90
23579;DHT22;11967;50.852;4.400;2024-02-14T10:15:07;12.90;99.90
23579;DHT22;11967;50.852;4.400;2024-02-14T10:17:33;12.70;99.90
23579;DHT22;11967;50.852;4.400;2024-02-14T10:20:00;12.60;99.90
23579;DHT22;11967;50.852;4.400;2024-02-14T10:22:38;12.60;99.90
23579;DHT22;11967;50.852;4.400;2024-02-14T10:25:05;12.60;99.90
23579;DHT22;11967;50.852;4.400;2024-02-14T10:27:38;12.50;99.90
23579;DHT22;11967;50.852;4.400;2024-02-14T10:30:08;12.60;99.90
23579;DHT22;11967;50.852;4.400;2024-02-14T10:32:37;12.60;99.90
23579;DHT22;11967;50.852;4.400;2024-02-14T10:35:07;12.60;99.90
23579;DHT22;11967;50.852;4.400;2024-02-14T10:37:35;12.60;99.90
23579;DHT22;11967;50.852;4.400;2024-02-14T10:40:02;12.60;99.90
23579;DHT22;11967;50.852;4.400;2024-02-14T10:45:36;12.80;99.90
23579;DHT22;11967;50.852;4.400;2024-02-14T10:48:05;12.70;99.90
23579;DHT22;11967;50.852;4.400;2024-02-14T10:50:36;12.70;99.90
23579;DHT22;11967;50.852;4.400;2024-02-14T10:53:06;12.70;99.90
23579;DHT22;11967;50.852;4.400;2024-02-14T10:55:33;12.70;99.90
23579;DHT22;11967;50.852;4.400;2024-02-14T10:58:00;12.80;99.90
23579;DHT22;11967;50.852;4.400;2024-02-14T11:00:27;12.80;99.90
23579;DHT22;11967;50.852;4.400;2024-02-14T11:02:53;12.80;99.90
23579;DHT22;11967;50.852;4.400;2024-02-14T11:05:20;12.80;99.90
23579;DHT22;11967;50.852;4.400;2024-02-14T11:07:49;12.80;99.90
23579;DHT22;11967;50.852;4.400;2024-02-14T11:10:19;12.70;99.90
23579;DHT22;11967;50.852;4.400;2024-02-14T11:12:48;12.80;99.90
23579;DHT22;11967;50.852;4.400;2024-02-14T11:15:22;12.90;99.90
23579;DHT22;11967;50.852;4.400;2024-02-14T11:17:48;12.90;99.90
23579;DHT22;11967;50.852;4.400;2024-02-14T11:20:18;12.90;99.90
23579;DHT22;11967;50.852;4.400;2024-02-14T11:25:33;12.80;99.90
23579;DHT22;11967;50.852;4.400;2024-02-14T11:28:15;12.80;99.90
23579;DHT22;11967;50.852;4.400;2024-02-14T11:30:42;12.90;99.90
23579;DHT22;11967;50.852;4.400;2024-02-14T11:35:46;13.00;99.90
23579;DHT22;11967;50.852;4.400;2024-02-14T11:38:14;13.00;99.90
23579;DHT22;11967;50.852;4.400;2024-02-14T11:40:40;13.00;99.90
23579;DHT22;11967;50.852;4.400;2024-02-14T11:43:17;13.00;99.90
23579;DHT22;11967;50.852;4.400;2024-02-14T11:45:43;13.10;99.90
23579;DHT22;11967;50.852;4.400;2024-02-14T11:48:14;13.10;99.90
23579;DHT22;11967;50.852;4.400;2024-02-14T11:50:41;13.10;99.90
23579;DHT22;11967;50.852;4.400;2024-02-14T11:53:07;13.10;99.90
23579;DHT22;11967;50.852;4.400;2024-02-14T11:55:40;13.20;99.90
23579;DHT22;11967;50.852;4.400;2024-02-14T11:58:14;13.10;99.90
23579;DHT22;11967;50.852;4.400;2024-02-14T12:00:46;13.20;99.90
23579;DHT22;11967;50.852;4.400;2024-02-14T12:03:14;13.20;99.90
23579;DHT22;11967;50.852;4.400;2024-02-14T12:05:41;13.20;99.90
23579;DHT22;11967;50.852;4.400;2024-02-14T12:08:09;13.30;99.90
23579;DHT22;11967;50.852;4.400;2024-02-14T12:10:36;13.30;99.90
23579;DHT22;11967;50.852;4.400;2024-02-14T12:13:13;13.30;99.90
23579;DHT22;11967;50.852;4.400;2024-02-14T12:15:44;13.20;99.90
23579;DHT22;11967;50.852;4.400;2024-02-14T12:18:10;13.20;99.90
23579;DHT22;11967;50.852;4.400;2024-02-14T12:20:36;13.20;99.90
23579;DHT22;11967;50.852;4.400;2024-02-14T12:23:02;13.30;99.90
23579;DHT22;11967;50.852;4.400;2024-02-14T12:25:29;13.30;99.90
23579;DHT22;11967;50.852;4.400;2024-02-14T12:27:57;13.40;99.90
23579;DHT22;11967;50.852;4.400;2024-02-14T12:30:47;13.30;99.90
23579;DHT22;11967;50.852;4.400;2024-02-14T12:33:22;13.40;99.90
23579;DHT22;11967;50.852;4.400;2024-02-14T12:35:50;13.30;99.90
23579;DHT22;11967;50.852;4.400;2024-02-14T12:38:17;13.40;99.90
23579;DHT22;11967;50.852;4.400;2024-02-14T12:40:43;13.40;99.90
23579;DHT22;11967;50.852;4.400;2024-02-14T12:43:10;13.30;99.90
23579;DHT22;11967;50.852;4.400;2024-02-14T12:45:37;13.30;99.90
23579;DHT22;11967;50.852;4.400;2024-02-14T12:48:03;13.40;99.90
23579;DHT22;11967;50.852;4.400;2024-02-14T12:50:30;13.50;99.90
23579;DHT22;11967;50.852;4.400;2024-02-14T12:52:57;13.50;99.90
23579;DHT22;11967;50.852;4.400;2024-02-14T12:55:22;13.50;99.90
23579;DHT22;11967;50.852;4.400;2024-02-14T12:57:54;13.60;99.90
23579;DHT22;11967;50.852;4.400;2024-02-14T13:00:20;13.60;99.90
23579;DHT22;11967;50.852;4.400;2024-02-14T13:02:48;13.60;99.90
23579;DHT22;11967;50.852;4.400;2024-02-14T13:05:14;13.50;99.90
23579;DHT22;11967;50.852;4.400;2024-02-14T13:07:41;13.50;99.90
23579;DHT22;11967;50.852;4.400;2024-02-14T13:10:08;13.40;99.90
23579;DHT22;11967;50.852;4.400;2024-02-14T13:12:37;13.50;99.90
23579;DHT22;11967;50.852;4.400;2024-02-14T13:15:05;13.50;99.90
23579;DHT22;11967;50.852;4.400;2024-02-14T13:17:31;13.50;99.90
23579;DHT22;11967;50.852;4.400;2024-02-14T13:19:56;13.50;99.90
23579;DHT22;11967;50.852;4.400;2024-02-14T13:22:24;13.50;99.90
23579;DHT22;11967;50.852;4.400;2024-02-14T13:24:50;13.50;99.90
23579;DHT22;11967;50.852;4.400;2024-02-14T13:27:15;13.50;99.90
23579;DHT22;11967;50.852;4.400;2024-02-14T13:29:41;13.50;99.90
23579;DHT22;11967;50.852;4.400;2024-02-14T13:32:07;13.50;99.90
23579;DHT22;11967;50.852;4.400;2024-02-14T13:34:35;13.50;99.90
23579;DHT22;11967;50.852;4.400;2024-02-14T13:37:01;13.60;99.90
23579;DHT22;11967;50.852;4.400;2024-02-14T13:39:28;13.60;99.90
23579;DHT22;11967;50.852;4.400;2024-02-14T13:41:53;13.60;99.90
23579;DHT22;11967;50.852;4.400;2024-02-14T13:44:20;13.60;99.90
23579;DHT22;11967;50.852;4.400;2024-02-14T13:46:46;13.50;99.90
23579;DHT22;11967;50.852;4.400;2024-02-14T13:49:12;13.50;99.90
23579;DHT22;11967;50.852;4.400;2024-02-14T13:51:41;13.60;99.90
23579;DHT22;11967;50.852;4.400;2024-02-14T13:54:07;13.60;99.90
23579;DHT22;11967;50.852;4.400;2024-02-14T13:56:34;13.50;99.90
23579;DHT22;11967;50.852;4.400;2024-02-14T13:59:00;13.60;99.90
23579;DHT22;11967;50.852;4.400;2024-02-14T14:01:25;13.60;99.90
23579;DHT22;11967;50.852;4.400;2024-02-14T14:03:52;13.70;99.90
23579;DHT22;11967;50.852;4.400;2024-02-14T14:06:20;13.70;99.90
23579;DHT22;11967;50.852;4.400;2024-02-14T14:08:46;13.60;99.90
23579;DHT22;11967;50.852;4.400;2024-02-14T14:11:12;13.60;99.90
23579;DHT22;11967;50.852;4.400;2024-02-14T14:13:38;13.60;99.90
23579;DHT22;11967;50.852;4.400;2024-02-14T14:16:04;13.70;99.90
23579;DHT22;11967;50.852;4.400;2024-02-14T14:18:31;13.60;99.90
23579;DHT22;11967;50.852;4.400;2024-02-14T14:20:57;13.60;99.90
23579;DHT22;11967;50.852;4.400;2024-02-14T14:23:23;13.60;99.90
23579;DHT22;11967;50.852;4.400;2024-02-14T14:25:49;13.60;99.90
23579;DHT22;11967;50.852;4.400;2024-02-14T14:28:14;13.60;99.90
23579;DHT22;11967;50.852;4.400;2024-02-14T14:30:40;13.70;99.90
23579;DHT22;11967;50.852;4.400;2024-02-14T14:33:06;13.80;99.90
23579;DHT22;11967;50.852;4.400;2024-02-14T14:35:33;13.70;99.90
23579;DHT22;11967;50.852;4.400;2024-02-14T14:38:02;13.70;99.90
23579;DHT22;11967;50.852;4.400;2024-02-14T14:40:29;13.80;99.90
23579;DHT22;11967;50.852;4.400;2024-02-14T14:42:55;13.80;99.90
23579;DHT22;11967;50.852;4.400;2024-02-14T14:45:20;13.70;99.90
23579;DHT22;11967;50.852;4.400;2024-02-14T14:47:46;13.70;99.90
23579;DHT22;11967;50.852;4.400;2024-02-14T14:50:12;13.70;99.90
23579;DHT22;11967;50.852;4.400;2024-02-14T14:52:43;13.80;99.90
23579;DHT22;11967;50.852;4.400;2024-02-14T14:55:09;13.80;99.90
23579;DHT22;11967;50.852;4.400;2024-02-14T14:57:36;13.80;99.90
23579;DHT22;11967;50.852;4.400;2024-02-14T15:00:09;13.70;99.90
23579;DHT22;11967;50.852;4.400;2024-02-14T15:02:42;13.80;99.90
23579;DHT22;11967;50.852;4.400;2024-02-14T15:05:09;13.90;99.90
23579;DHT22;11967;50.852;4.400;2024-02-14T15:07:36;13.90;99.90
23579;DHT22;11967;50.852;4.400;2024-02-14T15:10:02;13.90;99.90
23579;DHT22;11967;50.852;4.400;2024-02-14T15:12:30;13.90;99.90
23579;DHT22;11967;50.852;4.400;2024-02-14T15:14:55;14.00;99.90
23579;DHT22;11967;50.852;4.400;2024-02-14T15:17:21;14.00;99.90
23579;DHT22;11967;50.852;4.400;2024-02-14T15:19:48;14.00;99.90
23579;DHT22;11967;50.852;4.400;2024-02-14T15:22:14;14.00;99.90
23579;DHT22;11967;50.852;4.400;2024-02-14T15:24:40;14.00;99.90
23579;DHT22;11967;50.852;4.400;2024-02-14T15:27:08;13.90;99.90
23579;DHT22;11967;50.852;4.400;2024-02-14T15:29:36;14.00;99.90
23579;DHT22;11967;50.852;4.400;2024-02-14T15:32:20;13.90;99.90
23579;DHT22;11967;50.852;4.400;2024-02-14T15:35:04;13.90;99.90
23579;DHT22;11967;50.852;4.400;2024-02-14T15:37:30;13.90;99.90
23579;DHT22;11967;50.852;4.400;2024-02-14T15:39:56;14.00;99.90
23579;DHT22;11967;50.852;4.400;2024-02-14T15:42:23;14.00;99.90
23579;DHT22;11967;50.852;4.400;2024-02-14T15:44:48;13.90;99.90